createdAt,value
2022-08-27T00:00:53.366Z,5.43
2022-08-27T00:03:21.755Z,9.07
2022-08-27T00:05:50.871Z,7.83
2022-08-27T00:08:24.354Z,11.27
2022-08-27T00:10:58.787Z,6.93
2022-08-27T00:13:29.489Z,6.60
2022-08-27T00:16:01.862Z,7.93
2022-08-27T00:18:30.434Z,7.47
2022-08-27T00:20:58.564Z,8.67
2022-08-27T00:23:26.938Z,6.37
2022-08-27T00:25:57.126Z,6.83
2022-08-27T00:28:26.992Z,6.20
2022-08-27T00:30:56.497Z,7.83
2022-08-27T00:33:25.362Z,6.73
2022-08-27T00:35:54.278Z,6.00
2022-08-27T00:38:24.776Z,5.77
2022-08-27T00:40:53.731Z,8.17
2022-08-27T00:43:25.187Z,5.90
2022-08-27T00:45:56.780Z,4.80
2022-08-27T00:48:29.087Z,7.47
2022-08-27T00:50:58.036Z,9.93
2022-08-27T00:53:30.167Z,8.27
2022-08-27T00:56:03.788Z,7.40
2022-08-27T00:58:36.467Z,6.97
2022-08-27T01:01:07.279Z,5.63
2022-08-27T01:03:36.325Z,7.43
2022-08-27T01:06:07.665Z,7.53
2022-08-27T01:08:43.079Z,7.70
2022-08-27T01:11:11.630Z,7.90
2022-08-27T01:14:00.114Z,6.47
2022-08-27T01:16:38.312Z,9.40
2022-08-27T01:19:15.484Z,7.50
2022-08-27T01:21:49.943Z,6.73
2022-08-27T01:24:31.655Z,6.43
2022-08-27T01:27:01.638Z,6.83
2022-08-27T01:29:31.065Z,9.07
2022-08-27T01:32:06.683Z,7.67
2022-08-27T01:34:35.114Z,6.47
2022-08-27T01:37:04.261Z,6.50
2022-08-27T01:39:37.822Z,8.63
2022-08-27T01:42:11.873Z,8.50
2022-08-27T01:44:47.703Z,6.23
2022-08-27T01:47:21.292Z,9.47
2022-08-27T01:49:55.880Z,9.33
2022-08-27T01:52:39.098Z,6.30
2022-08-27T01:55:13.876Z,6.80
2022-08-27T01:57:43.629Z,6.77
2022-08-27T02:00:17.156Z,8.30
2022-08-27T02:02:48.137Z,7.17
2022-08-27T02:05:18.020Z,7.30
2022-08-27T02:07:48.954Z,8.30
2022-08-27T02:10:24.608Z,4.93
2022-08-27T02:12:55.115Z,5.77
2022-08-27T02:15:26.798Z,13.50
2022-08-27T02:18:02.755Z,7.93
2022-08-27T02:20:37.406Z,9.20
2022-08-27T02:23:10.037Z,8.73
2022-08-27T02:25:42.702Z,10.43
2022-08-27T02:28:12.486Z,9.43
2022-08-27T02:30:42.997Z,9.73
2022-08-27T02:33:16.160Z,9.03
2022-08-27T02:35:46.382Z,9.53
2022-08-27T02:38:16.217Z,8.43
2022-08-27T02:40:47.804Z,9.67
2022-08-27T02:43:25.338Z,10.10
2022-08-27T02:45:55.740Z,11.00
2022-08-27T02:48:28.124Z,11.03
2022-08-27T02:50:58.668Z,9.03
2022-08-27T02:53:30.244Z,7.00
2022-08-27T02:56:03.904Z,6.70
2022-08-27T02:58:36.656Z,8.23
2022-08-27T03:01:13.673Z,7.20
2022-08-27T03:03:44.477Z,8.83
2022-08-27T03:06:15.003Z,8.63
2022-08-27T03:08:52.623Z,9.17
2022-08-27T03:11:26.289Z,8.87
2022-08-27T03:13:55.575Z,9.00
2022-08-27T03:16:28.099Z,13.07
2022-08-27T03:18:57.290Z,9.57
2022-08-27T03:21:27.686Z,12.10
2022-08-27T03:23:57.309Z,12.57
2022-08-27T03:26:28.850Z,11.10
2022-08-27T03:29:00.156Z,9.87
2022-08-27T03:31:31.596Z,8.17
2022-08-27T03:34:06.249Z,8.70
2022-08-27T03:36:36.313Z,11.13
2022-08-27T03:39:05.611Z,9.43
2022-08-27T03:41:53.972Z,9.40
2022-08-27T03:44:26.992Z,15.23
2022-08-27T03:46:56.835Z,8.73
2022-08-27T03:49:28.001Z,11.40
2022-08-27T03:51:58.306Z,8.23
2022-08-27T03:54:28.098Z,10.50
2022-08-27T03:57:04.065Z,9.50
2022-08-27T03:59:33.837Z,7.27
2022-08-27T04:02:07.773Z,9.67
2022-08-27T04:04:38.749Z,11.23
2022-08-27T04:07:09.471Z,10.10
2022-08-27T04:09:39.362Z,12.23
2022-08-27T04:12:12.914Z,7.93
2022-08-27T04:14:41.743Z,10.73
2022-08-27T04:17:11.291Z,10.80
2022-08-27T04:19:42.876Z,8.97
2022-08-27T04:22:14.440Z,8.73
2022-08-27T04:24:46.412Z,8.67
2022-08-27T04:27:18.096Z,9.63
2022-08-27T04:29:49.499Z,10.40
2022-08-27T04:32:21.612Z,8.23
2022-08-27T04:34:55.914Z,11.53
2022-08-27T04:37:27.166Z,11.13
2022-08-27T04:39:56.251Z,10.60
2022-08-27T04:42:27.148Z,11.73
2022-08-27T04:45:00.356Z,9.93
2022-08-27T04:47:29.710Z,11.27
2022-08-27T04:50:00.849Z,11.53
2022-08-27T04:52:34.832Z,11.63
2022-08-27T04:55:12.574Z,10.40
2022-08-27T04:57:42.594Z,10.70
2022-08-27T05:00:12.068Z,10.60
2022-08-27T05:02:40.534Z,13.13
2022-08-27T05:05:13.121Z,9.50
2022-08-27T05:07:44.279Z,11.60
2022-08-27T05:10:15.015Z,9.43
2022-08-27T05:12:46.982Z,9.53
2022-08-27T05:15:17.305Z,12.87
2022-08-27T05:17:49.487Z,11.30
2022-08-27T05:20:19.826Z,8.17
2022-08-27T05:22:49.168Z,12.03
2022-08-27T05:25:17.411Z,9.00
2022-08-27T05:27:49.964Z,11.53
2022-08-27T05:30:19.267Z,8.73
2022-08-27T05:32:48.025Z,10.27
2022-08-27T05:35:20.234Z,11.00
2022-08-27T05:37:50.814Z,13.93
2022-08-27T05:40:20.858Z,9.13
2022-08-27T05:42:54.984Z,11.13
2022-08-27T05:45:24.416Z,11.00
2022-08-27T05:47:52.855Z,11.67
2022-08-27T05:50:23.696Z,14.70
2022-08-27T05:52:55.310Z,13.30
2022-08-27T05:55:23.386Z,12.93
2022-08-27T05:57:55.416Z,12.03
2022-08-27T06:00:41.802Z,11.37
2022-08-27T06:03:15.044Z,14.90
2022-08-27T06:05:47.364Z,10.50
2022-08-27T06:08:16.748Z,17.70
2022-08-27T06:10:45.619Z,11.80
2022-08-27T06:13:15.866Z,12.23
2022-08-27T06:15:44.031Z,11.57
2022-08-27T06:18:13.610Z,14.30
2022-08-27T06:20:41.866Z,13.10
2022-08-27T06:23:11.707Z,12.33
2022-08-27T06:25:43.522Z,11.73
2022-08-27T06:28:13.684Z,11.93
2022-08-27T06:30:43.876Z,11.63
2022-08-27T06:33:12.817Z,12.63
2022-08-27T06:35:44.393Z,13.70
2022-08-27T06:38:12.758Z,15.13
2022-08-27T06:40:44.456Z,12.20
2022-08-27T06:43:13.278Z,10.63
2022-08-27T06:45:43.185Z,11.50
2022-08-27T06:48:12.935Z,11.53
2022-08-27T06:50:42.500Z,11.60
2022-08-27T06:53:11.178Z,13.00
2022-08-27T06:55:43.652Z,12.63
2022-08-27T06:58:12.673Z,10.23
2022-08-27T07:00:46.091Z,10.63
2022-08-27T07:03:17.551Z,13.77
2022-08-27T07:05:46.328Z,10.27
2022-08-27T07:08:15.012Z,10.37
2022-08-27T07:10:44.486Z,8.63
2022-08-27T07:13:13.794Z,8.00
2022-08-27T07:15:44.179Z,9.90
2022-08-27T07:18:12.609Z,12.60
2022-08-27T07:20:43.276Z,9.97
2022-08-27T07:23:13.348Z,8.43
2022-08-27T07:25:45.870Z,10.07
2022-08-27T07:28:15.171Z,10.33
2022-08-27T07:30:46.350Z,8.53
2022-08-27T07:33:15.336Z,9.83
2022-08-27T07:35:44.380Z,8.83
2022-08-27T07:38:15.689Z,8.77
2022-08-27T07:40:44.400Z,8.30
2022-08-27T07:43:31.016Z,10.43
2022-08-27T07:46:03.958Z,10.63
2022-08-27T07:48:33.854Z,6.80
2022-08-27T07:51:05.988Z,7.67
2022-08-27T07:53:35.060Z,7.27
2022-08-27T07:56:08.033Z,7.43
2022-08-27T07:58:36.971Z,5.87
2022-08-27T08:01:07.308Z,10.03
2022-08-27T08:03:36.068Z,7.17
2022-08-27T08:06:06.584Z,8.50
2022-08-27T08:08:40.846Z,8.57
2022-08-27T08:11:15.675Z,7.87
2022-08-27T08:13:45.040Z,9.40
2022-08-27T08:16:15.636Z,7.60
2022-08-27T08:18:44.269Z,9.73
2022-08-27T08:21:15.049Z,7.27
2022-08-27T08:23:44.670Z,5.67
2022-08-27T08:26:14.228Z,6.77
2022-08-27T08:28:43.009Z,6.60
2022-08-27T08:31:11.652Z,4.20
2022-08-27T08:33:41.819Z,4.93
2022-08-27T08:36:12.594Z,7.77
2022-08-27T08:38:41.675Z,6.47
2022-08-27T08:49:42.794Z,10.87
2022-08-27T08:52:30.888Z,9.13
2022-08-27T08:55:14.431Z,5.63
2022-08-27T08:57:55.300Z,6.37
2022-08-27T09:00:26.951Z,5.80
2022-08-27T09:02:56.184Z,6.00
2022-08-27T09:05:28.987Z,5.23
2022-08-27T09:08:31.999Z,5.70
2022-08-27T09:11:06.335Z,5.47
2022-08-27T09:13:43.127Z,5.27
2022-08-27T09:16:20.196Z,3.83
2022-08-27T09:18:51.276Z,6.43
2022-08-27T09:21:34.128Z,4.23
2022-08-27T10:05:59.509Z,2.33
2022-08-27T10:08:40.414Z,4.70
2022-08-27T10:11:17.526Z,4.07
2022-08-27T10:13:53.373Z,5.53
2022-08-27T10:16:51.273Z,3.77
2022-08-27T10:19:46.235Z,4.43
2022-08-27T10:22:28.000Z,7.10
2022-08-27T10:25:09.629Z,4.47
2022-08-27T10:27:46.932Z,3.20
2022-08-27T10:30:19.528Z,3.67
2022-08-27T10:33:05.927Z,6.90
2022-08-27T10:35:48.085Z,4.53
2022-08-27T10:38:42.411Z,5.50
2022-08-27T10:41:19.469Z,5.33
2022-08-27T10:44:21.938Z,3.97
2022-08-27T10:47:10.417Z,4.27
2022-08-27T10:49:47.154Z,4.63
2022-08-27T10:52:25.482Z,4.40
2022-08-27T10:55:15.538Z,2.73
2022-08-27T10:58:17.643Z,3.87
2022-08-27T13:30:36.144Z,3.87
2022-08-27T13:33:09.056Z,3.30
2022-08-27T13:35:38.229Z,2.00
2022-08-27T13:38:07.361Z,1.90
2022-08-27T13:40:38.414Z,4.17
2022-08-27T13:43:14.450Z,3.37
2022-08-27T13:45:49.432Z,3.03
2022-08-27T13:48:22.363Z,4.77
2022-08-27T13:50:56.475Z,4.03
2022-08-27T13:53:46.636Z,2.20
2022-08-27T13:56:27.418Z,2.53
2022-08-27T13:58:57.800Z,6.50
2022-08-27T14:01:32.808Z,3.63
2022-08-27T14:04:07.000Z,3.57
2022-08-27T14:06:49.922Z,2.43
2022-08-27T14:09:24.600Z,4.23
2022-08-27T14:12:05.000Z,1.97
2022-08-27T14:15:15.700Z,5.27
2022-08-27T14:17:50.963Z,3.23
2022-08-27T14:20:22.998Z,3.73
2022-08-27T14:22:56.021Z,2.90
2022-08-27T14:25:25.217Z,5.20
2022-08-27T14:27:59.408Z,4.80
2022-08-27T14:30:29.349Z,3.40
2022-08-27T14:33:07.155Z,4.17
2022-08-27T14:35:37.547Z,2.23
2022-08-27T14:38:22.726Z,3.93
2022-08-27T14:40:55.849Z,3.23
2022-08-27T14:43:25.235Z,4.63
2022-08-27T14:45:55.063Z,3.57
2022-08-27T14:48:37.860Z,3.97
2022-08-27T14:51:26.247Z,5.40
2022-08-27T14:54:02.707Z,4.23
2022-08-27T14:56:31.371Z,4.23
2022-08-27T14:59:00.650Z,4.13
2022-08-27T15:01:29.571Z,5.07
2022-08-27T15:04:00.854Z,7.63
2022-08-27T15:06:29.397Z,2.73
2022-08-27T15:09:20.733Z,3.30
2022-08-27T15:11:55.596Z,3.77
2022-08-27T15:14:35.820Z,4.20
2022-08-27T15:17:12.289Z,3.50
2022-08-27T15:20:03.781Z,3.00
2022-08-27T15:22:43.977Z,4.80
2022-08-27T15:25:14.163Z,5.70
2022-08-27T15:27:42.573Z,4.70
2022-08-27T15:30:14.054Z,5.60
2022-08-27T15:32:44.783Z,4.17
2022-08-27T15:35:17.620Z,3.63
2022-08-27T15:37:46.802Z,6.00
2022-08-27T15:40:17.132Z,3.13
2022-08-27T15:42:46.139Z,4.00
2022-08-27T15:45:16.035Z,5.10
2022-08-27T15:47:45.753Z,4.27
2022-08-27T15:50:16.610Z,4.73
2022-08-27T15:52:46.243Z,4.43
2022-08-27T15:55:21.821Z,7.07
2022-08-27T15:57:50.460Z,7.87
2022-08-27T16:00:22.067Z,7.77
2022-08-27T16:02:51.162Z,8.53
2022-08-27T16:05:22.624Z,4.83
2022-08-27T16:07:51.503Z,4.77
2022-08-27T16:10:19.710Z,5.40
2022-08-27T16:12:47.959Z,4.17
2022-08-27T16:15:17.380Z,7.13
2022-08-27T16:17:46.381Z,10.33
2022-08-27T16:20:16.929Z,13.27
2022-08-27T16:22:47.551Z,13.00
2022-08-27T16:25:21.282Z,5.53
2022-08-27T16:27:50.927Z,5.43
2022-08-27T16:30:19.492Z,9.90
2022-08-27T16:32:50.879Z,16.70
2022-08-27T16:35:20.085Z,9.77
2022-08-27T16:37:49.650Z,3.77
2022-08-27T16:40:19.885Z,5.33
2022-08-27T16:42:51.933Z,3.13
2022-08-27T16:45:24.357Z,6.50
2022-08-27T16:48:11.023Z,4.83
2022-08-27T16:50:41.158Z,11.17
2022-08-27T16:53:13.903Z,7.10
2022-08-27T16:55:43.195Z,7.33
2022-08-27T16:58:19.717Z,9.53
2022-08-27T17:00:50.938Z,4.63
2022-08-27T17:03:19.414Z,6.07
2022-08-27T17:05:48.438Z,8.60
2022-08-27T17:08:21.273Z,7.63
2022-08-27T17:10:58.151Z,6.63
2022-08-27T17:13:29.568Z,5.27
2022-08-27T17:16:01.980Z,4.10
2022-08-27T17:18:30.717Z,4.33
2022-08-27T17:21:00.935Z,5.30
2022-08-27T17:23:34.012Z,12.83
2022-08-27T17:26:02.273Z,28.70
2022-08-27T17:28:30.775Z,7.10
2022-08-27T17:31:01.262Z,7.30
2022-08-27T17:33:33.160Z,6.37
2022-08-27T17:36:02.040Z,5.00
2022-08-27T17:38:33.863Z,5.90
2022-08-27T17:41:09.816Z,4.47
2022-08-27T17:43:37.921Z,4.53
2022-08-27T17:46:07.328Z,7.87
2022-08-27T17:48:36.439Z,11.13
2022-08-27T17:51:05.776Z,4.50
2022-08-27T17:53:35.691Z,7.67
2022-08-27T17:56:04.389Z,4.83
2022-08-27T17:58:35.327Z,4.83
2022-08-27T18:01:03.593Z,4.17
2022-08-27T18:03:47.863Z,5.93
2022-08-27T18:06:17.192Z,2.93
2022-08-27T18:08:47.890Z,4.07
2022-08-27T18:11:16.588Z,10.13
2022-08-27T18:13:45.326Z,2.53
2022-08-27T18:16:13.607Z,5.30
2022-08-27T18:18:41.852Z,8.40
2022-08-27T18:21:11.174Z,5.93
2022-08-27T18:23:45.891Z,7.07
2022-08-27T18:26:22.819Z,4.30
2022-08-27T18:29:03.854Z,4.07
2022-08-27T18:31:38.226Z,4.53
2022-08-27T18:34:07.841Z,3.37
2022-08-27T18:36:40.603Z,5.60
2022-08-27T18:39:09.323Z,5.37
2022-08-27T18:41:40.281Z,5.33
2022-08-27T18:44:17.552Z,6.40
2022-08-27T18:46:52.456Z,3.63
2022-08-27T18:49:22.878Z,6.67
2022-08-27T18:51:52.786Z,4.40
2022-08-27T18:54:22.861Z,4.40
2022-08-27T18:56:53.186Z,3.73
2022-08-27T18:59:25.840Z,5.33
2022-08-27T19:01:55.384Z,3.73
2022-08-27T19:04:24.835Z,4.60
2022-08-27T19:06:53.273Z,6.13
2022-08-27T19:09:21.744Z,4.60
2022-08-27T19:11:52.053Z,4.43
2022-08-27T19:14:20.252Z,6.07
2022-08-27T19:16:56.135Z,3.90
2022-08-27T19:19:27.291Z,6.97
2022-08-27T19:21:55.543Z,4.80
2022-08-27T19:24:24.886Z,4.70
2022-08-27T19:26:55.612Z,3.07
2022-08-27T19:29:24.111Z,5.00
2022-08-27T19:31:52.722Z,6.37
2022-08-27T19:34:21.279Z,4.67
2022-08-27T19:36:49.956Z,3.40
2022-08-27T19:39:18.597Z,3.80
2022-08-27T19:41:47.320Z,11.00
2022-08-27T19:44:24.304Z,8.57
2022-08-27T19:46:56.010Z,8.03
2022-08-27T19:49:27.735Z,2.40
2022-08-27T19:51:56.258Z,6.20
2022-08-27T19:54:32.686Z,6.20
2022-08-27T19:57:05.186Z,4.13
2022-08-27T19:59:41.357Z,6.93
2022-08-27T20:02:13.082Z,10.30
2022-08-27T20:05:07.277Z,4.43
2022-08-27T20:07:37.531Z,5.40
2022-08-27T20:10:08.418Z,6.80
2022-08-27T20:12:43.657Z,7.00
2022-08-27T20:15:17.100Z,5.23
2022-08-27T20:17:49.078Z,4.60
2022-08-27T20:20:23.997Z,8.30
2022-08-27T20:22:55.540Z,5.13
2022-08-27T20:25:27.342Z,10.13
2022-08-27T20:27:55.949Z,4.80
2022-08-27T20:30:28.993Z,5.43
